Chinggis Khaan International Airport
ZMUB : now visible

Airfield :











YOU CAN JOIN US ON...

 
LOGIN :

Register | Disclaimer

   EN    FR    IT 

 









Legend :    VFR   Marginal VFR   IFR   Intensive IFR   Very Intensive IFR
Visi :
Ceiling :
>= 8 km
>= 3000ft
5 to 8 km
1000 to 3000 ft
1500m to 5 km
500 to 1000 ft
800 to 1500m
200 to 500 ft
< 800m
< 200 ft
Symbols :   Thunderstorms  Fog  Heavy snow  Heavy precipitations  Wind > 20 kt






- Airport Elevation : 4364 ft
- IATA code : ULN


ZMUB - Chinggis Khaan International

CURRENT METAR :
  • 211700Z VRB02MPS 9999 SCT033 SCT100 19/05 Q1009 NOSIG RMK QFE650.5 39 NT

EXPIRED METARs :
  • 211600Z VRB02MPS 9999 SCT033 SCT100 20/05 Q1010 NOSIG RMK QFE650.6 38 NT
  • 211500Z VRB02MPS 9999 SCT033 19/03 Q1010 NOSIG RMK QFE650.6 32 NT
  • 211400Z VRB01MPS 9999 SCT033 20/02 Q1009 NOSIG RMK QFE650.5 29 NT
  • 211300Z VRB01MPS 9999 SCT033 SCT100 22/01 Q1009 NOSIG RMK QFE650.3 25 NT

TAF TAF ZMUB
Valid from the 21 at 18:00 until the 23 at 00:00 UTC


211650Z 2118/2224 VRB02MPS 9999 FEW030CB SCT033 TN12/2123Z TX22/2207Z
TEMPO 2203/2212 VRB09MPS TSRA SCT027CB SCT030
ZMUB FIR / Asia



MET'MAP, your aeronautical weather chart ! - Copyright ORBIFLY December 2007 - Disclaimer

ORBIFLY MET'MAP TEAM :

Programming & Development : Alexandra Zaïnal
Original concept : Baudouin d'Aumeries
Technical & hardware support : Manuel Goepfert
Assistance : Marc-Olivier Méhu




SOURCES & CREDITS :

   NOAA       Earth
Advisory